Terminal Aerodrome Forecast
Issued by NWS

Home | Current Version | Previous Version | Text Only | Print | Product List | Glossary On
Versions: 1 2 3 4 5 6 7 8 9 10 11 12 13
000
FTUS41 KLWX 211500 AAA
TAFMTN
TAF AMD
KMTN 211513Z 2115/2212 VRB03KT P6SM FEW040 SCT100
     FM211800 23005KT P6SM BKN060
     FM212100 29005KT 5SM -SHRA BKN040
     FM220400 36005KT 6SM -SHRA OVC030=

USA.gov is the U.S. government's official web portal to all federal, state and local government web resources and services.